createdAt,value
2023-04-15T00:04:47.484Z,99880.20
2023-04-15T00:09:50.638Z,99883.40
2023-04-15T00:14:54.685Z,99884.40
2023-04-15T00:20:00.013Z,99883.80
2023-04-15T00:25:03.658Z,99881.80
2023-04-15T00:30:07.727Z,99873.20
2023-04-15T00:35:11.092Z,99874.60
2023-04-15T00:40:17.567Z,99871.80
2023-04-15T00:45:20.884Z,99872.60
2023-04-15T00:50:24.232Z,99871.60
2023-04-15T00:55:27.496Z,99878.40
2023-04-15T01:00:31.463Z,99876.20
2023-04-15T01:05:35.040Z,99873.40
2023-04-15T01:10:39.670Z,99876.40
2023-04-15T01:15:43.044Z,99874.60
2023-04-15T01:20:46.927Z,99864.20
2023-04-15T01:25:52.646Z,99867.80
2023-04-15T01:31:15.805Z,99867.00
2023-04-15T01:36:18.869Z,99859.20
2023-04-15T01:41:28.994Z,99863.80
2023-04-15T01:46:32.522Z,99864.00
2023-04-15T01:51:35.765Z,99863.00
2023-04-15T01:56:39.186Z,99856.40
2023-04-15T02:01:42.413Z,99853.00
2023-04-15T02:06:45.499Z,99855.60
2023-04-15T02:11:48.610Z,99865.00
2023-04-15T02:16:51.779Z,99866.80
2023-04-15T02:21:54.819Z,99869.80
2023-04-15T02:26:57.973Z,99874.80
2023-04-15T02:32:01.229Z,99867.60
2023-04-15T02:37:04.962Z,99868.60
2023-04-15T02:42:10.490Z,99867.00
2023-04-15T02:47:14.560Z,99867.20
2023-04-15T02:52:17.658Z,99873.20
2023-04-15T02:57:20.760Z,99869.20
2023-04-15T03:02:24.783Z,99866.80
2023-04-15T03:07:28.096Z,99872.20
2023-04-15T03:12:31.324Z,99873.60
2023-04-15T03:17:34.548Z,99877.60
2023-04-15T03:22:37.833Z,99884.40
2023-04-15T03:27:42.163Z,99881.00
2023-04-15T03:32:45.306Z,99878.80
2023-04-15T03:37:49.482Z,99884.00
2023-04-15T03:42:52.375Z,99885.20
2023-04-15T03:47:55.913Z,99883.40
2023-04-15T03:52:59.648Z,99881.40
2023-04-15T03:58:02.778Z,99874.60
2023-04-15T04:03:06.036Z,99883.60
2023-04-15T04:08:09.269Z,99883.80
2023-04-15T04:13:12.270Z,99886.40
2023-04-15T04:18:15.583Z,99892.20
2023-04-15T04:23:18.699Z,99884.80
2023-04-15T04:28:21.998Z,99881.40
2023-04-15T04:33:25.316Z,99883.20
2023-04-15T04:38:28.520Z,99884.80
2023-04-15T04:43:31.623Z,99884.60
2023-04-15T04:48:34.931Z,99887.40
2023-04-15T04:53:38.040Z,99891.00
2023-04-15T04:58:41.148Z,99893.00
2023-04-15T05:03:44.515Z,99889.20
2023-04-15T05:08:48.585Z,99897.60
2023-04-15T05:13:51.621Z,99895.00
2023-04-15T05:18:54.910Z,99903.20
2023-04-15T05:23:58.010Z,99904.00
2023-04-15T05:29:01.537Z,99904.80
2023-04-15T05:34:05.566Z,99898.80
2023-04-15T05:39:09.376Z,99905.20
2023-04-15T05:44:12.591Z,99900.60
2023-04-15T05:49:15.798Z,99909.80
2023-04-15T05:54:20.279Z,99914.60
2023-04-15T05:59:23.541Z,99916.40
2023-04-15T06:04:26.814Z,99919.40
2023-04-15T06:09:30.070Z,99920.40
2023-04-15T06:14:33.167Z,99914.60
2023-04-15T06:19:39.755Z,99916.40
2023-04-15T06:24:43.070Z,99918.20
2023-04-15T06:29:46.491Z,99924.80
2023-04-15T06:34:49.589Z,99922.40
2023-04-15T06:39:52.954Z,99926.80
2023-04-15T06:44:56.417Z,99920.60
2023-04-15T06:49:59.827Z,99922.40
2023-04-15T06:55:03.198Z,99929.20
2023-04-15T07:00:07.683Z,99931.60
2023-04-15T07:05:10.807Z,99930.40
2023-04-15T07:10:15.242Z,99929.60
2023-04-15T07:15:18.442Z,99936.40
2023-04-15T07:20:21.636Z,99943.20
2023-04-15T07:25:24.947Z,99941.80
2023-04-15T07:30:28.062Z,99953.80
2023-04-15T07:35:31.783Z,99951.00
2023-04-15T07:40:34.892Z,99951.20
2023-04-15T07:45:38.197Z,99951.20
2023-04-15T07:50:41.299Z,99952.80
2023-04-15T07:55:44.410Z,99960.00
2023-04-15T08:00:47.614Z,99969.00
2023-04-15T08:05:50.724Z,99966.20
2023-04-15T08:10:53.937Z,99973.40
2023-04-15T08:16:25.403Z,99963.60
2023-04-15T08:21:31.168Z,99968.00
2023-04-15T08:26:34.274Z,99967.80
2023-04-15T08:31:37.577Z,99972.00
2023-04-15T08:36:41.826Z,99967.40
2023-04-15T08:42:03.916Z,99965.40
2023-04-15T08:47:09.467Z,99966.00
2023-04-15T08:52:13.168Z,99964.00
2023-04-15T08:57:17.243Z,99965.80
2023-04-15T09:02:21.135Z,99974.40
2023-04-15T09:07:24.320Z,99967.40
2023-04-15T09:12:27.602Z,99965.80
2023-04-15T09:17:34.155Z,99967.00
2023-04-15T09:22:38.267Z,99971.00
2023-04-15T09:27:52.816Z,99965.40
2023-04-15T09:33:02.543Z,99972.60
2023-04-15T09:38:10.500Z,99974.80
2023-04-15T09:43:13.957Z,99973.80
2023-04-15T09:48:22.436Z,99982.00
2023-04-15T09:53:26.996Z,99987.60
2023-04-15T09:58:33.685Z,99994.40
2023-04-15T10:03:37.820Z,99994.00
2023-04-15T10:08:43.131Z,99997.40
2023-04-15T10:13:49.108Z,99997.60
2023-04-15T10:18:57.690Z,99999.60
2023-04-15T10:24:03.879Z,99999.00
2023-04-15T10:29:08.525Z,100002.80
2023-04-15T10:34:12.773Z,99998.40
2023-04-15T10:39:34.654Z,99998.40
2023-04-15T10:44:58.978Z,99999.80
2023-04-15T10:50:02.700Z,100004.40
2023-04-15T10:55:22.048Z,100007.80
2023-04-15T11:00:28.992Z,100007.20
2023-04-15T11:05:52.692Z,100013.80
2023-04-15T11:10:56.120Z,100008.20
2023-04-15T11:16:01.788Z,100014.00
2023-04-15T11:21:08.326Z,100015.40
2023-04-15T11:26:14.416Z,100013.40
2023-04-15T11:31:20.272Z,100022.80
2023-04-15T11:36:29.353Z,100024.80
2023-04-15T11:41:32.547Z,100024.20
2023-04-15T11:46:36.271Z,100026.20
2023-04-15T11:51:39.388Z,100027.80
2023-04-15T11:56:42.492Z,100025.20
2023-04-15T12:01:47.773Z,100028.80
2023-04-15T12:06:51.045Z,100032.20
2023-04-15T12:11:58.691Z,100038.00
2023-04-15T12:17:05.487Z,100037.80
2023-04-15T12:22:15.340Z,100042.40
2023-04-15T12:27:18.535Z,100048.20
2023-04-15T12:32:23.911Z,100050.00
2023-04-15T12:37:27.007Z,100053.60
2023-04-15T12:42:30.098Z,100051.60
2023-04-15T12:47:33.436Z,100045.60
2023-04-15T12:52:36.624Z,100063.40
2023-04-15T12:57:40.143Z,100060.40
2023-04-15T13:02:44.867Z,100072.00
2023-04-15T13:07:48.198Z,100068.40
2023-04-15T13:12:53.808Z,100066.80
2023-04-15T13:17:57.105Z,100069.60
2023-04-15T13:23:00.295Z,100073.60
2023-04-15T13:28:03.585Z,100077.00
2023-04-15T13:33:06.842Z,100080.00
2023-04-15T13:38:10.027Z,100076.00
2023-04-15T13:43:13.210Z,100080.80
2023-04-15T13:48:16.579Z,100079.80
2023-04-15T13:53:19.854Z,100084.40
2023-04-15T13:58:22.942Z,100086.00
2023-04-15T14:03:26.418Z,100088.00
2023-04-15T14:08:31.317Z,100094.40
2023-04-15T14:13:34.533Z,100096.00
2023-04-15T14:18:37.919Z,100097.20
2023-04-15T14:23:41.336Z,100096.80
2023-04-15T14:28:45.471Z,100104.40
2023-04-15T14:33:48.568Z,100101.40
2023-04-15T14:38:51.723Z,100106.40
2023-04-15T14:43:54.880Z,100116.00
2023-04-15T14:48:58.227Z,100127.40
2023-04-15T14:54:01.535Z,100126.00
2023-04-15T14:59:05.052Z,100137.60
2023-04-15T15:04:11.173Z,100138.60
2023-04-15T15:09:14.328Z,100148.40
2023-04-15T15:14:17.518Z,100143.60
2023-04-15T15:19:21.039Z,100154.20
2023-04-15T15:24:24.141Z,100152.80
2023-04-15T15:29:27.355Z,100158.40
2023-04-15T15:34:30.558Z,100160.00
2023-04-15T15:39:36.097Z,100164.00
2023-04-15T15:44:39.143Z,100173.60
2023-04-15T15:49:42.338Z,100175.60
2023-04-15T15:54:45.762Z,100177.00
2023-04-15T15:59:49.232Z,100179.40
2023-04-15T16:04:53.321Z,100187.80
2023-04-15T16:09:56.435Z,100190.20
2023-04-15T16:14:59.505Z,100196.80
2023-04-15T16:20:05.696Z,100206.00
2023-04-15T16:25:09.894Z,100207.00
2023-04-15T16:30:14.275Z,100215.60
2023-04-15T16:35:17.767Z,100219.80
2023-04-15T16:40:20.787Z,100224.00
2023-04-15T16:45:24.097Z,100231.00
2023-04-15T16:50:27.392Z,100243.40
2023-04-15T16:55:30.705Z,100247.40
2023-04-15T17:00:37.015Z,100250.40
2023-04-15T17:05:40.306Z,100260.80
2023-04-15T17:10:43.511Z,100263.60
2023-04-15T17:15:46.793Z,100268.80
2023-04-15T17:20:50.069Z,100272.60
2023-04-15T17:25:54.261Z,100277.40
2023-04-15T17:30:57.488Z,100280.00
2023-04-15T17:36:00.772Z,100281.20
2023-04-15T17:41:05.121Z,100290.40
2023-04-15T17:46:08.447Z,100297.00
2023-04-15T17:51:13.170Z,100301.40
2023-04-15T17:56:16.387Z,100317.40
2023-04-15T18:01:19.509Z,100317.40
2023-04-15T18:06:22.789Z,100329.40
2023-04-15T18:11:26.409Z,100339.60
2023-04-15T18:16:29.771Z,100344.40
2023-04-15T18:21:33.062Z,100344.00
2023-04-15T18:26:36.442Z,100349.00
2023-04-15T18:31:39.686Z,100354.00
2023-04-15T18:36:43.071Z,100363.80
2023-04-15T18:41:46.308Z,100371.60
2023-04-15T18:46:50.217Z,100375.80
2023-04-15T18:51:53.618Z,100382.40
2023-04-15T18:56:57.040Z,100376.60
2023-04-15T19:02:01.553Z,100381.80
2023-04-15T19:07:05.197Z,100381.40
2023-04-15T19:12:08.933Z,100386.80
2023-04-15T19:17:12.099Z,100388.20
2023-04-15T19:22:16.732Z,100395.60
2023-04-15T19:27:19.978Z,100385.20
2023-04-15T19:32:23.395Z,100388.20
2023-04-15T19:37:26.634Z,100384.60
2023-04-15T19:42:29.804Z,100388.00
2023-04-15T19:47:34.451Z,100392.60
2023-04-15T19:52:38.165Z,100398.80
2023-04-15T19:57:41.401Z,100389.20
2023-04-15T20:02:44.709Z,100383.40
2023-04-15T20:07:52.010Z,100390.20
2023-04-15T20:12:55.203Z,100387.00
2023-04-15T20:17:58.346Z,100384.40
2023-04-15T20:23:01.529Z,100388.00
2023-04-15T20:28:04.735Z,100388.40
2023-04-15T20:33:08.292Z,100386.40
2023-04-15T20:38:11.465Z,100385.40
2023-04-15T20:43:14.857Z,100380.20
2023-04-15T20:48:19.424Z,100382.20
2023-04-15T20:53:22.902Z,100384.40
2023-04-15T20:58:27.256Z,100390.40
2023-04-15T21:03:30.567Z,100394.80
2023-04-15T21:08:33.876Z,100396.60
2023-04-15T21:13:37.120Z,100397.40
2023-04-15T21:18:40.499Z,100396.40
2023-04-15T21:23:43.614Z,100405.00
2023-04-15T21:28:46.713Z,100406.60
2023-04-15T21:33:50.022Z,100403.60
2023-04-15T21:38:53.166Z,100409.80
2023-04-15T21:43:56.335Z,100414.80
2023-04-15T21:48:59.559Z,100419.60
2023-04-15T21:54:02.880Z,100427.00
2023-04-15T21:59:06.896Z,100422.00
2023-04-15T22:04:11.334Z,100431.40
2023-04-15T22:09:14.733Z,100439.00
2023-04-15T22:14:18.158Z,100446.80
2023-04-15T22:19:21.287Z,100446.80
2023-04-15T22:24:33.215Z,100448.40
2023-04-15T22:29:43.145Z,100449.20
2023-04-15T22:34:46.660Z,100448.20
2023-04-15T22:39:49.983Z,100457.80
2023-04-15T22:44:53.082Z,100458.80
2023-04-15T22:49:56.204Z,100459.60
2023-04-15T22:54:59.893Z,100461.80
2023-04-15T23:00:03.953Z,100466.00
2023-04-15T23:05:12.588Z,100462.60
2023-04-15T23:10:16.805Z,100461.60
2023-04-15T23:15:20.208Z,100461.40
2023-04-15T23:20:23.431Z,100466.80
2023-04-15T23:25:27.439Z,100469.60
2023-04-15T23:30:31.295Z,100466.80
2023-04-15T23:35:34.365Z,100468.60
2023-04-15T23:40:37.483Z,100463.60
2023-04-15T23:45:40.687Z,100464.40
2023-04-15T23:50:43.887Z,100457.00
2023-04-15T23:55:47.005Z,100459.60
